sensor_id;sensor_type;location;lat;lon;timestamp;P1;durP1;ratioP1;P2;durP2;ratioP2
77409;SDS011;66481;51.332;22.804;2023-01-29T00:00:28;18.20;;;7.22;;
77409;SDS011;66481;51.332;22.804;2023-01-29T00:04:49;11.45;;;6.45;;
77409;SDS011;66481;51.332;22.804;2023-01-29T00:08:50;12.70;;;6.35;;
77409;SDS011;66481;51.332;22.804;2023-01-29T00:12:52;11.02;;;5.30;;
77409;SDS011;66481;51.332;22.804;2023-01-29T00:16:53;10.13;;;5.88;;
77409;SDS011;66481;51.332;22.804;2023-01-29T00:20:55;11.70;;;6.38;;
77409;SDS011;66481;51.332;22.804;2023-01-29T00:24:56;10.88;;;5.28;;
77409;SDS011;66481;51.332;22.804;2023-01-29T00:28:58;14.65;;;6.55;;
77409;SDS011;66481;51.332;22.804;2023-01-29T00:33:02;10.27;;;5.57;;
77409;SDS011;66481;51.332;22.804;2023-01-29T00:37:03;11.07;;;5.57;;
77409;SDS011;66481;51.332;22.804;2023-01-29T00:41:12;11.80;;;5.60;;
77409;SDS011;66481;51.332;22.804;2023-01-29T00:45:33;10.95;;;6.25;;
77409;SDS011;66481;51.332;22.804;2023-01-29T00:49:36;14.88;;;7.13;;
77409;SDS011;66481;51.332;22.804;2023-01-29T00:53:37;11.07;;;5.65;;
77409;SDS011;66481;51.332;22.804;2023-01-29T00:57:38;13.85;;;5.80;;
77409;SDS011;66481;51.332;22.804;2023-01-29T01:01:39;13.98;;;5.55;;
77409;SDS011;66481;51.332;22.804;2023-01-29T01:06:02;9.48;;;5.50;;
77409;SDS011;66481;51.332;22.804;2023-01-29T01:10:08;12.70;;;6.55;;
77409;SDS011;66481;51.332;22.804;2023-01-29T01:14:21;11.25;;;6.25;;
77409;SDS011;66481;51.332;22.804;2023-01-29T01:18:22;10.98;;;6.30;;
77409;SDS011;66481;51.332;22.804;2023-01-29T01:22:23;13.20;;;6.13;;
77409;SDS011;66481;51.332;22.804;2023-01-29T01:26:25;11.15;;;5.80;;
77409;SDS011;66481;51.332;22.804;2023-01-29T01:30:26;8.50;;;5.20;;
77409;SDS011;66481;51.332;22.804;2023-01-29T01:34:27;12.32;;;6.05;;
77409;SDS011;66481;51.332;22.804;2023-01-29T01:38:28;7.85;;;5.40;;
77409;SDS011;66481;51.332;22.804;2023-01-29T01:42:30;6.68;;;4.68;;
77409;SDS011;66481;51.332;22.804;2023-01-29T01:46:32;11.05;;;5.70;;
77409;SDS011;66481;51.332;22.804;2023-01-29T01:50:41;8.45;;;4.80;;
77409;SDS011;66481;51.332;22.804;2023-01-29T01:54:45;6.60;;;4.68;;
77409;SDS011;66481;51.332;22.804;2023-01-29T01:58:56;8.57;;;5.35;;
77409;SDS011;66481;51.332;22.804;2023-01-29T02:02:58;9.07;;;5.50;;
77409;SDS011;66481;51.332;22.804;2023-01-29T02:07:20;8.45;;;5.63;;
77409;SDS011;66481;51.332;22.804;2023-01-29T02:11:39;9.05;;;5.05;;
77409;SDS011;66481;51.332;22.804;2023-01-29T02:15:40;8.63;;;5.55;;
77409;SDS011;66481;51.332;22.804;2023-01-29T02:45:32;9.48;;;4.68;;
77409;SDS011;66481;51.332;22.804;2023-01-29T02:49:47;9.55;;;5.20;;
77409;SDS011;66481;51.332;22.804;2023-01-29T02:54:05;11.65;;;7.00;;
77409;SDS011;66481;51.332;22.804;2023-01-29T02:58:18;11.75;;;5.80;;
77409;SDS011;66481;51.332;22.804;2023-01-29T03:02:33;8.48;;;5.13;;
77409;SDS011;66481;51.332;22.804;2023-01-29T03:06:42;8.68;;;5.63;;
77409;SDS011;66481;51.332;22.804;2023-01-29T03:10:56;9.18;;;5.60;;
77409;SDS011;66481;51.332;22.804;2023-01-29T03:15:07;8.98;;;4.72;;
77409;SDS011;66481;51.332;22.804;2023-01-29T03:19:24;8.45;;;6.15;;
77409;SDS011;66481;51.332;22.804;2023-01-29T03:23:34;8.20;;;5.57;;
77409;SDS011;66481;51.332;22.804;2023-01-29T03:27:55;9.88;;;5.45;;
77409;SDS011;66481;51.332;22.804;2023-01-29T03:32:17;8.65;;;5.40;;
77409;SDS011;66481;51.332;22.804;2023-01-29T03:40:47;8.65;;;5.68;;
77409;SDS011;66481;51.332;22.804;2023-01-29T03:49:00;9.63;;;5.97;;
77409;SDS011;66481;51.332;22.804;2023-01-29T03:57:17;8.10;;;5.97;;
77409;SDS011;66481;51.332;22.804;2023-01-29T04:01:54;9.70;;;6.45;;
77409;SDS011;66481;51.332;22.804;2023-01-29T04:05:58;9.10;;;6.20;;
77409;SDS011;66481;51.332;22.804;2023-01-29T04:10:22;10.05;;;6.47;;
77409;SDS011;66481;51.332;22.804;2023-01-29T04:14:26;13.30;;;6.97;;
77409;SDS011;66481;51.332;22.804;2023-01-29T04:18:27;9.40;;;6.22;;
77409;SDS011;66481;51.332;22.804;2023-01-29T04:22:33;9.05;;;5.47;;
77409;SDS011;66481;51.332;22.804;2023-01-29T04:26:43;8.80;;;4.97;;
77409;SDS011;66481;51.332;22.804;2023-01-29T04:56:17;10.23;;;4.93;;
77409;SDS011;66481;51.332;22.804;2023-01-29T05:00:32;6.60;;;4.88;;
77409;SDS011;66481;51.332;22.804;2023-01-29T05:04:42;6.93;;;3.88;;
77409;SDS011;66481;51.332;22.804;2023-01-29T05:08:45;7.93;;;5.13;;
77409;SDS011;66481;51.332;22.804;2023-01-29T05:12:50;7.55;;;5.20;;
77409;SDS011;66481;51.332;22.804;2023-01-29T05:17:01;7.53;;;5.68;;
77409;SDS011;66481;51.332;22.804;2023-01-29T05:21:06;7.57;;;5.85;;
77409;SDS011;66481;51.332;22.804;2023-01-29T05:25:27;10.35;;;5.63;;
77409;SDS011;66481;51.332;22.804;2023-01-29T05:29:30;6.88;;;4.10;;
77409;SDS011;66481;51.332;22.804;2023-01-29T05:33:31;9.15;;;5.70;;
77409;SDS011;66481;51.332;22.804;2023-01-29T05:37:32;6.75;;;4.65;;
77409;SDS011;66481;51.332;22.804;2023-01-29T05:41:33;10.05;;;6.53;;
77409;SDS011;66481;51.332;22.804;2023-01-29T05:45:34;9.68;;;5.53;;
77409;SDS011;66481;51.332;22.804;2023-01-29T05:49:35;10.32;;;6.75;;
77409;SDS011;66481;51.332;22.804;2023-01-29T05:53:36;6.32;;;4.55;;
77409;SDS011;66481;51.332;22.804;2023-01-29T05:57:38;7.75;;;5.40;;
77409;SDS011;66481;51.332;22.804;2023-01-29T06:01:39;7.75;;;5.50;;
77409;SDS011;66481;51.332;22.804;2023-01-29T06:05:40;8.63;;;5.75;;
77409;SDS011;66481;51.332;22.804;2023-01-29T06:09:41;7.97;;;5.15;;
77409;SDS011;66481;51.332;22.804;2023-01-29T06:13:43;7.53;;;5.22;;
77409;SDS011;66481;51.332;22.804;2023-01-29T06:17:44;5.30;;;4.18;;
77409;SDS011;66481;51.332;22.804;2023-01-29T06:21:45;6.57;;;4.43;;
77409;SDS011;66481;51.332;22.804;2023-01-29T06:25:46;7.15;;;5.00;;
77409;SDS011;66481;51.332;22.804;2023-01-29T06:29:47;8.07;;;5.10;;
77409;SDS011;66481;51.332;22.804;2023-01-29T06:33:48;7.97;;;5.05;;
77409;SDS011;66481;51.332;22.804;2023-01-29T06:37:49;8.60;;;5.05;;
77409;SDS011;66481;51.332;22.804;2023-01-29T06:41:51;7.65;;;5.22;;
77409;SDS011;66481;51.332;22.804;2023-01-29T06:45:54;24.27;;;14.38;;
77409;SDS011;66481;51.332;22.804;2023-01-29T06:49:56;7.43;;;4.97;;
77409;SDS011;66481;51.332;22.804;2023-01-29T06:53:57;9.98;;;7.18;;
77409;SDS011;66481;51.332;22.804;2023-01-29T06:57:58;7.88;;;4.90;;
77409;SDS011;66481;51.332;22.804;2023-01-29T07:01:59;7.88;;;5.30;;
77409;SDS011;66481;51.332;22.804;2023-01-29T07:06:00;11.35;;;8.48;;
77409;SDS011;66481;51.332;22.804;2023-01-29T07:10:01;25.52;;;15.93;;
77409;SDS011;66481;51.332;22.804;2023-01-29T07:14:03;11.93;;;5.53;;
77409;SDS011;66481;51.332;22.804;2023-01-29T07:18:04;8.27;;;5.03;;
77409;SDS011;66481;51.332;22.804;2023-01-29T07:22:11;8.43;;;6.28;;
77409;SDS011;66481;51.332;22.804;2023-01-29T07:26:12;7.10;;;5.30;;
77409;SDS011;66481;51.332;22.804;2023-01-29T07:30:13;7.65;;;5.30;;
77409;SDS011;66481;51.332;22.804;2023-01-29T07:34:15;9.18;;;6.22;;
77409;SDS011;66481;51.332;22.804;2023-01-29T07:38:16;12.23;;;6.65;;
77409;SDS011;66481;51.332;22.804;2023-01-29T07:42:17;9.90;;;5.85;;
77409;SDS011;66481;51.332;22.804;2023-01-29T07:46:18;8.63;;;5.65;;
77409;SDS011;66481;51.332;22.804;2023-01-29T07:50:19;8.32;;;5.95;;
77409;SDS011;66481;51.332;22.804;2023-01-29T07:54:20;8.88;;;5.20;;
77409;SDS011;66481;51.332;22.804;2023-01-29T07:58:22;9.35;;;6.18;;
77409;SDS011;66481;51.332;22.804;2023-01-29T08:02:23;8.27;;;5.15;;
77409;SDS011;66481;51.332;22.804;2023-01-29T08:06:24;8.50;;;5.60;;
77409;SDS011;66481;51.332;22.804;2023-01-29T08:10:25;9.73;;;6.18;;
77409;SDS011;66481;51.332;22.804;2023-01-29T08:14:26;11.55;;;6.60;;
77409;SDS011;66481;51.332;22.804;2023-01-29T08:18:27;6.28;;;4.90;;
77409;SDS011;66481;51.332;22.804;2023-01-29T08:22:29;8.38;;;5.20;;
77409;SDS011;66481;51.332;22.804;2023-01-29T08:26:30;10.20;;;6.10;;
77409;SDS011;66481;51.332;22.804;2023-01-29T08:30:31;6.78;;;4.90;;
77409;SDS011;66481;51.332;22.804;2023-01-29T08:34:34;7.65;;;4.25;;
77409;SDS011;66481;51.332;22.804;2023-01-29T08:38:35;7.43;;;4.93;;
77409;SDS011;66481;51.332;22.804;2023-01-29T08:42:36;8.30;;;4.38;;
77409;SDS011;66481;51.332;22.804;2023-01-29T08:46:37;9.18;;;5.65;;
77409;SDS011;66481;51.332;22.804;2023-01-29T08:50:40;7.30;;;4.93;;
77409;SDS011;66481;51.332;22.804;2023-01-29T08:54:41;6.78;;;4.30;;
77409;SDS011;66481;51.332;22.804;2023-01-29T08:58:42;7.13;;;4.50;;
77409;SDS011;66481;51.332;22.804;2023-01-29T09:02:43;6.43;;;4.47;;
77409;SDS011;66481;51.332;22.804;2023-01-29T09:06:44;8.27;;;4.57;;
77409;SDS011;66481;51.332;22.804;2023-01-29T09:10:46;8.82;;;4.90;;
77409;SDS011;66481;51.332;22.804;2023-01-29T09:14:47;8.75;;;5.32;;
77409;SDS011;66481;51.332;22.804;2023-01-29T09:18:48;7.30;;;4.43;;
77409;SDS011;66481;51.332;22.804;2023-01-29T09:22:48;5.82;;;3.75;;
77409;SDS011;66481;51.332;22.804;2023-01-29T09:26:53;8.07;;;4.18;;
77409;SDS011;66481;51.332;22.804;2023-01-29T09:30:54;8.27;;;5.10;;
77409;SDS011;66481;51.332;22.804;2023-01-29T09:34:55;5.90;;;3.97;;
77409;SDS011;66481;51.332;22.804;2023-01-29T09:38:57;5.80;;;3.65;;
77409;SDS011;66481;51.332;22.804;2023-01-29T09:43:00;6.43;;;3.55;;
77409;SDS011;66481;51.332;22.804;2023-01-29T09:47:07;6.72;;;4.60;;
77409;SDS011;66481;51.332;22.804;2023-01-29T09:51:24;9.02;;;4.45;;
77409;SDS011;66481;51.332;22.804;2023-01-29T09:55:29;6.03;;;3.85;;
77409;SDS011;66481;51.332;22.804;2023-01-29T09:59:35;5.50;;;3.47;;
77409;SDS011;66481;51.332;22.804;2023-01-29T10:12:28;7.70;;;4.72;;
77409;SDS011;66481;51.332;22.804;2023-01-29T10:20:54;7.80;;;4.97;;
77409;SDS011;66481;51.332;22.804;2023-01-29T10:25:17;11.55;;;5.07;;
77409;SDS011;66481;51.332;22.804;2023-01-29T10:29:20;9.68;;;5.68;;
77409;SDS011;66481;51.332;22.804;2023-01-29T10:42:28;6.75;;;4.35;;
77409;SDS011;66481;51.332;22.804;2023-01-29T10:59:55;15.02;;;10.13;;
77409;SDS011;66481;51.332;22.804;2023-01-29T11:04:12;6.38;;;4.38;;
77409;SDS011;66481;51.332;22.804;2023-01-29T11:08:17;8.43;;;4.65;;
77409;SDS011;66481;51.332;22.804;2023-01-29T11:12:32;5.88;;;4.22;;
77409;SDS011;66481;51.332;22.804;2023-01-29T11:16:44;7.22;;;3.67;;
77409;SDS011;66481;51.332;22.804;2023-01-29T11:20:47;10.93;;;4.55;;
77409;SDS011;66481;51.332;22.804;2023-01-29T11:25:08;6.07;;;4.50;;
77409;SDS011;66481;51.332;22.804;2023-01-29T11:33:48;4.03;;;3.15;;
77409;SDS011;66481;51.332;22.804;2023-01-29T11:37:51;6.43;;;4.10;;
77409;SDS011;66481;51.332;22.804;2023-01-29T11:42:08;5.22;;;3.88;;
77409;SDS011;66481;51.332;22.804;2023-01-29T11:46:21;4.45;;;2.88;;
77409;SDS011;66481;51.332;22.804;2023-01-29T11:50:24;6.80;;;4.03;;
77409;SDS011;66481;51.332;22.804;2023-01-29T11:54:29;7.63;;;4.30;;
77409;SDS011;66481;51.332;22.804;2023-01-29T11:58:34;8.07;;;4.45;;
77409;SDS011;66481;51.332;22.804;2023-01-29T12:02:37;7.80;;;5.18;;
77409;SDS011;66481;51.332;22.804;2023-01-29T12:06:44;7.20;;;5.47;;
77409;SDS011;66481;51.332;22.804;2023-01-29T12:10:48;9.00;;;5.07;;
77409;SDS011;66481;51.332;22.804;2023-01-29T12:19:43;8.20;;;4.72;;
77409;SDS011;66481;51.332;22.804;2023-01-29T12:28:15;6.80;;;3.53;;
77409;SDS011;66481;51.332;22.804;2023-01-29T12:32:54;8.10;;;4.55;;
77409;SDS011;66481;51.332;22.804;2023-01-29T12:45:29;9.63;;;4.72;;
77409;SDS011;66481;51.332;22.804;2023-01-29T12:49:32;9.65;;;5.03;;
77409;SDS011;66481;51.332;22.804;2023-01-29T12:53:40;9.43;;;5.07;;
77409;SDS011;66481;51.332;22.804;2023-01-29T13:01:51;8.15;;;4.70;;
77409;SDS011;66481;51.332;22.804;2023-01-29T13:06:16;6.47;;;4.70;;
77409;SDS011;66481;51.332;22.804;2023-01-29T13:10:27;7.38;;;4.88;;
77409;SDS011;66481;51.332;22.804;2023-01-29T13:14:45;10.93;;;5.47;;
77409;SDS011;66481;51.332;22.804;2023-01-29T13:19:49;10.52;;;4.88;;
77409;SDS011;66481;51.332;22.804;2023-01-29T13:23:41;6.63;;;3.88;;
77409;SDS011;66481;51.332;22.804;2023-01-29T13:27:45;8.38;;;5.35;;
77409;SDS011;66481;51.332;22.804;2023-01-29T13:31:47;9.13;;;5.65;;
77409;SDS011;66481;51.332;22.804;2023-01-29T13:35:57;8.60;;;4.47;;
77409;SDS011;66481;51.332;22.804;2023-01-29T13:40:00;11.10;;;6.35;;
77409;SDS011;66481;51.332;22.804;2023-01-29T13:44:04;8.57;;;4.13;;
77409;SDS011;66481;51.332;22.804;2023-01-29T13:48:08;8.68;;;5.05;;
77409;SDS011;66481;51.332;22.804;2023-01-29T14:01:01;8.15;;;5.40;;
77409;SDS011;66481;51.332;22.804;2023-01-29T14:09:33;6.60;;;4.50;;
77409;SDS011;66481;51.332;22.804;2023-01-29T14:13:37;7.65;;;4.28;;
77409;SDS011;66481;51.332;22.804;2023-01-29T14:17:38;8.52;;;4.45;;
77409;SDS011;66481;51.332;22.804;2023-01-29T14:21:39;15.75;;;6.32;;
77409;SDS011;66481;51.332;22.804;2023-01-29T14:25:41;9.35;;;5.22;;
77409;SDS011;66481;51.332;22.804;2023-01-29T14:29:41;15.57;;;6.80;;
77409;SDS011;66481;51.332;22.804;2023-01-29T14:33:43;11.57;;;6.05;;
77409;SDS011;66481;51.332;22.804;2023-01-29T14:37:46;12.27;;;6.35;;
77409;SDS011;66481;51.332;22.804;2023-01-29T14:41:50;13.18;;;6.57;;
77409;SDS011;66481;51.332;22.804;2023-01-29T14:45:52;13.32;;;6.10;;
77409;SDS011;66481;51.332;22.804;2023-01-29T14:49:54;12.93;;;6.50;;
77409;SDS011;66481;51.332;22.804;2023-01-29T14:54:01;11.82;;;6.43;;
77409;SDS011;66481;51.332;22.804;2023-01-29T14:58:17;13.00;;;5.82;;
77409;SDS011;66481;51.332;22.804;2023-01-29T15:02:28;11.52;;;6.60;;
77409;SDS011;66481;51.332;22.804;2023-01-29T15:06:45;11.27;;;6.57;;
77409;SDS011;66481;51.332;22.804;2023-01-29T15:10:55;10.35;;;5.30;;
77409;SDS011;66481;51.332;22.804;2023-01-29T15:19:45;10.68;;;6.05;;
77409;SDS011;66481;51.332;22.804;2023-01-29T15:23:52;13.00;;;8.07;;
77409;SDS011;66481;51.332;22.804;2023-01-29T15:28:04;14.00;;;5.85;;
77409;SDS011;66481;51.332;22.804;2023-01-29T15:32:15;10.82;;;6.60;;
77409;SDS011;66481;51.332;22.804;2023-01-29T15:36:29;17.83;;;8.48;;
77409;SDS011;66481;51.332;22.804;2023-01-29T15:40:32;16.10;;;8.25;;
77409;SDS011;66481;51.332;22.804;2023-01-29T15:44:34;16.42;;;6.90;;
77409;SDS011;66481;51.332;22.804;2023-01-29T15:48:39;18.98;;;7.95;;
77409;SDS011;66481;51.332;22.804;2023-01-29T15:52:43;10.50;;;5.88;;
77409;SDS011;66481;51.332;22.804;2023-01-29T15:56:51;15.52;;;7.65;;
77409;SDS011;66481;51.332;22.804;2023-01-29T16:00:54;14.35;;;7.07;;
77409;SDS011;66481;51.332;22.804;2023-01-29T16:04:57;12.68;;;7.25;;
77409;SDS011;66481;51.332;22.804;2023-01-29T16:08:59;18.80;;;8.55;;
77409;SDS011;66481;51.332;22.804;2023-01-29T16:13:02;14.63;;;8.32;;
77409;SDS011;66481;51.332;22.804;2023-01-29T16:21:33;16.83;;;8.35;;
77409;SDS011;66481;51.332;22.804;2023-01-29T16:29:38;14.43;;;7.85;;
77409;SDS011;66481;51.332;22.804;2023-01-29T16:33:57;21.10;;;8.75;;
77409;SDS011;66481;51.332;22.804;2023-01-29T16:38:02;17.83;;;8.82;;
77409;SDS011;66481;51.332;22.804;2023-01-29T16:46:17;17.10;;;9.43;;
77409;SDS011;66481;51.332;22.804;2023-01-29T16:50:32;17.73;;;9.05;;
77409;SDS011;66481;51.332;22.804;2023-01-29T16:54:36;16.75;;;8.82;;
77409;SDS011;66481;51.332;22.804;2023-01-29T16:58:48;16.48;;;7.65;;
77409;SDS011;66481;51.332;22.804;2023-01-29T17:02:52;16.02;;;8.30;;
77409;SDS011;66481;51.332;22.804;2023-01-29T17:07:03;15.35;;;8.73;;
77409;SDS011;66481;51.332;22.804;2023-01-29T17:11:07;15.88;;;8.18;;
77409;SDS011;66481;51.332;22.804;2023-01-29T17:19:45;12.07;;;6.93;;
77409;SDS011;66481;51.332;22.804;2023-01-29T17:23:47;18.40;;;8.70;;
77409;SDS011;66481;51.332;22.804;2023-01-29T17:27:50;15.35;;;8.60;;
77409;SDS011;66481;51.332;22.804;2023-01-29T17:31:52;15.68;;;8.60;;
77409;SDS011;66481;51.332;22.804;2023-01-29T17:35:57;16.58;;;7.95;;
77409;SDS011;66481;51.332;22.804;2023-01-29T17:39:59;17.33;;;9.15;;
77409;SDS011;66481;51.332;22.804;2023-01-29T17:44:01;15.80;;;10.00;;
77409;SDS011;66481;51.332;22.804;2023-01-29T17:48:14;18.40;;;9.40;;
77409;SDS011;66481;51.332;22.804;2023-01-29T17:52:22;20.20;;;10.43;;
77409;SDS011;66481;51.332;22.804;2023-01-29T17:56:24;19.58;;;10.20;;
77409;SDS011;66481;51.332;22.804;2023-01-29T18:00:29;18.63;;;9.43;;
77409;SDS011;66481;51.332;22.804;2023-01-29T18:04:32;17.10;;;9.10;;
77409;SDS011;66481;51.332;22.804;2023-01-29T18:08:34;24.45;;;11.15;;
77409;SDS011;66481;51.332;22.804;2023-01-29T18:12:38;20.65;;;10.43;;
77409;SDS011;66481;51.332;22.804;2023-01-29T18:16:42;15.10;;;8.13;;
77409;SDS011;66481;51.332;22.804;2023-01-29T18:20:44;27.00;;;12.65;;
77409;SDS011;66481;51.332;22.804;2023-01-29T18:24:46;19.45;;;10.90;;
77409;SDS011;66481;51.332;22.804;2023-01-29T18:28:48;24.45;;;11.23;;
77409;SDS011;66481;51.332;22.804;2023-01-29T18:32:49;18.05;;;9.40;;
77409;SDS011;66481;51.332;22.804;2023-01-29T18:36:50;23.13;;;9.95;;
77409;SDS011;66481;51.332;22.804;2023-01-29T18:40:52;22.17;;;11.45;;
77409;SDS011;66481;51.332;22.804;2023-01-29T18:44:53;21.50;;;10.55;;
77409;SDS011;66481;51.332;22.804;2023-01-29T18:48:54;17.80;;;9.65;;
77409;SDS011;66481;51.332;22.804;2023-01-29T18:52:56;24.30;;;11.32;;
77409;SDS011;66481;51.332;22.804;2023-01-29T18:56:58;18.17;;;10.02;;
77409;SDS011;66481;51.332;22.804;2023-01-29T19:00:59;29.02;;;11.13;;
77409;SDS011;66481;51.332;22.804;2023-01-29T19:05:00;23.48;;;10.18;;
77409;SDS011;66481;51.332;22.804;2023-01-29T19:09:02;19.13;;;10.55;;
77409;SDS011;66481;51.332;22.804;2023-01-29T19:13:04;26.42;;;11.93;;
77409;SDS011;66481;51.332;22.804;2023-01-29T19:17:06;26.65;;;12.63;;
77409;SDS011;66481;51.332;22.804;2023-01-29T19:21:09;22.50;;;12.70;;
77409;SDS011;66481;51.332;22.804;2023-01-29T19:25:12;24.58;;;11.35;;
77409;SDS011;66481;51.332;22.804;2023-01-29T19:29:15;27.67;;;12.10;;
77409;SDS011;66481;51.332;22.804;2023-01-29T19:33:16;20.25;;;9.85;;
77409;SDS011;66481;51.332;22.804;2023-01-29T19:37:18;24.20;;;11.43;;
77409;SDS011;66481;51.332;22.804;2023-01-29T19:41:19;26.83;;;13.23;;
77409;SDS011;66481;51.332;22.804;2023-01-29T19:45:20;22.02;;;10.43;;
77409;SDS011;66481;51.332;22.804;2023-01-29T19:49:26;19.20;;;10.65;;
77409;SDS011;66481;51.332;22.804;2023-01-29T19:53:27;27.52;;;12.32;;
77409;SDS011;66481;51.332;22.804;2023-01-29T19:57:29;24.70;;;11.80;;
77409;SDS011;66481;51.332;22.804;2023-01-29T20:01:31;21.58;;;10.75;;
77409;SDS011;66481;51.332;22.804;2023-01-29T20:05:34;17.48;;;9.27;;
77409;SDS011;66481;51.332;22.804;2023-01-29T20:09:37;19.00;;;9.52;;
77409;SDS011;66481;51.332;22.804;2023-01-29T20:13:38;20.48;;;9.32;;
77409;SDS011;66481;51.332;22.804;2023-01-29T20:17:40;22.13;;;11.43;;
77409;SDS011;66481;51.332;22.804;2023-01-29T20:21:46;22.35;;;10.68;;
77409;SDS011;66481;51.332;22.804;2023-01-29T20:25:48;18.55;;;9.05;;
77409;SDS011;66481;51.332;22.804;2023-01-29T20:29:49;16.23;;;7.90;;
77409;SDS011;66481;51.332;22.804;2023-01-29T20:33:52;19.20;;;10.05;;
77409;SDS011;66481;51.332;22.804;2023-01-29T20:37:53;20.17;;;10.32;;
77409;SDS011;66481;51.332;22.804;2023-01-29T20:41:54;18.83;;;10.68;;
77409;SDS011;66481;51.332;22.804;2023-01-29T20:45:57;22.48;;;11.02;;
77409;SDS011;66481;51.332;22.804;2023-01-29T20:49:58;16.27;;;8.88;;
77409;SDS011;66481;51.332;22.804;2023-01-29T20:54:04;20.90;;;9.60;;
77409;SDS011;66481;51.332;22.804;2023-01-29T20:58:05;22.83;;;12.40;;
77409;SDS011;66481;51.332;22.804;2023-01-29T21:02:08;21.25;;;9.95;;
77409;SDS011;66481;51.332;22.804;2023-01-29T21:06:10;18.35;;;10.10;;
77409;SDS011;66481;51.332;22.804;2023-01-29T21:10:12;19.88;;;9.77;;
77409;SDS011;66481;51.332;22.804;2023-01-29T21:14:13;19.05;;;9.63;;
77409;SDS011;66481;51.332;22.804;2023-01-29T21:18:14;22.58;;;11.82;;
77409;SDS011;66481;51.332;22.804;2023-01-29T21:22:15;21.15;;;9.85;;
77409;SDS011;66481;51.332;22.804;2023-01-29T21:26:17;19.35;;;11.32;;
77409;SDS011;66481;51.332;22.804;2023-01-29T21:30:18;24.15;;;11.73;;
77409;SDS011;66481;51.332;22.804;2023-01-29T21:34:20;21.70;;;12.45;;
77409;SDS011;66481;51.332;22.804;2023-01-29T21:38:21;24.92;;;12.32;;
77409;SDS011;66481;51.332;22.804;2023-01-29T21:42:22;23.35;;;11.05;;
77409;SDS011;66481;51.332;22.804;2023-01-29T21:46:42;30.42;;;13.55;;
77409;SDS011;66481;51.332;22.804;2023-01-29T21:50:44;19.30;;;9.95;;
77409;SDS011;66481;51.332;22.804;2023-01-29T21:54:48;23.20;;;12.00;;
77409;SDS011;66481;51.332;22.804;2023-01-29T21:58:50;19.42;;;10.43;;
77409;SDS011;66481;51.332;22.804;2023-01-29T22:02:51;18.73;;;10.20;;
77409;SDS011;66481;51.332;22.804;2023-01-29T22:06:53;21.75;;;11.02;;
77409;SDS011;66481;51.332;22.804;2023-01-29T22:10:54;18.88;;;8.90;;
77409;SDS011;66481;51.332;22.804;2023-01-29T22:14:55;23.67;;;12.98;;
77409;SDS011;66481;51.332;22.804;2023-01-29T22:18:56;23.63;;;12.70;;
77409;SDS011;66481;51.332;22.804;2023-01-29T22:22:58;23.80;;;11.18;;
77409;SDS011;66481;51.332;22.804;2023-01-29T22:26:59;22.20;;;12.00;;
77409;SDS011;66481;51.332;22.804;2023-01-29T22:31:01;26.75;;;13.02;;
77409;SDS011;66481;51.332;22.804;2023-01-29T22:35:03;28.25;;;14.40;;
77409;SDS011;66481;51.332;22.804;2023-01-29T22:39:04;29.48;;;14.63;;
77409;SDS011;66481;51.332;22.804;2023-01-29T22:43:07;24.10;;;11.15;;
77409;SDS011;66481;51.332;22.804;2023-01-29T22:47:08;24.45;;;11.73;;
77409;SDS011;66481;51.332;22.804;2023-01-29T22:51:09;17.67;;;9.98;;
77409;SDS011;66481;51.332;22.804;2023-01-29T22:55:11;24.50;;;11.88;;
77409;SDS011;66481;51.332;22.804;2023-01-29T22:59:12;16.88;;;9.95;;
77409;SDS011;66481;51.332;22.804;2023-01-29T23:03:13;21.02;;;10.80;;
77409;SDS011;66481;51.332;22.804;2023-01-29T23:07:14;20.55;;;10.88;;
77409;SDS011;66481;51.332;22.804;2023-01-29T23:11:17;19.80;;;10.55;;
77409;SDS011;66481;51.332;22.804;2023-01-29T23:15:20;21.13;;;11.80;;
77409;SDS011;66481;51.332;22.804;2023-01-29T23:19:21;19.83;;;11.48;;
77409;SDS011;66481;51.332;22.804;2023-01-29T23:23:22;24.17;;;12.73;;
77409;SDS011;66481;51.332;22.804;2023-01-29T23:27:23;20.25;;;10.50;;
77409;SDS011;66481;51.332;22.804;2023-01-29T23:31:24;21.50;;;11.02;;
77409;SDS011;66481;51.332;22.804;2023-01-29T23:35:25;17.88;;;10.38;;
77409;SDS011;66481;51.332;22.804;2023-01-29T23:39:26;22.35;;;12.30;;
77409;SDS011;66481;51.332;22.804;2023-01-29T23:43:27;22.17;;;12.75;;
77409;SDS011;66481;51.332;22.804;2023-01-29T23:47:28;22.98;;;11.45;;
77409;SDS011;66481;51.332;22.804;2023-01-29T23:51:29;22.23;;;11.60;;
77409;SDS011;66481;51.332;22.804;2023-01-29T23:55:30;21.27;;;11.27;;
77409;SDS011;66481;51.332;22.804;2023-01-29T23:59:31;20.90;;;11.10;;
